Bismarck, IL

6:30 AM CDT on April 25, 2015 (GMT -0500)
Rantoul | | Change Station
CLOSE
Current Station
Airport
Location: Rantoul,
Elevation: 738 ft
Nearby Weather Stations

Elev 738 ft 40.29 °N, 88.15 °W | Updated 15 minutes ago

Overcast
Overcast
49 °F
Feels Like 49 °F
N
6
Wind Variable Wind from East

Today
High -- | Low -- °F
--% Chance of Precip.
Yesterday
High -- | Low -- °F
Precip. -- in
5:58 AM 7:39 PM
Waxing Crescent, 45% visible
Pressure 29.70 in
Visibility 5.0 miles
Clouds Overcast 2300 ft
Dew Point 47 °F
Humidity 92%
Rainfall 0.07 in
Snow Depth Not available.
UV 0 out of 12
Pollen 10.00 out of 12
Air Quality Not available.
Flu Activity Regional
METAR KTIP 251115Z AUTO 10005KT 5SM RA OVC023 10/08 A2970 RMK AO2 T00960083

More Conditions Fewer Conditions

Pressure 29.70 in
Visibility 5.0 miles
Clouds Overcast 2300 ft
Dew Point 47 °F
Humidity 92%
Rainfall 0.07 in
Snow Depth Not available.
UV 0 out of 12
Pollen 10.00 out of 12
Air Quality Not available.
Flu Activity Regional
METAR KTIP 251115Z AUTO 10005KT 5SM RA OVC023 10/08 A2970 RMK AO2 T00960083

More Conditions Fewer Conditions

10-Day Weather Forecast

Almanac

Astronomy

Apr. 25, 2015 Rise Set
Actual Time
Civil Twilight
Nautical Twilight
Astronomical Twilight
Moon
Length of Visible Light
Length of Day
Tomorrow will be .
, % of the Moon is Illuminated

Today's Extremes

State Highs State Lows

Community

WunderPhotos

Upload Photos

1,816,642 photos uploaded!

WunderBlogs® & News

Nearby

Air Quality

  Air Quality AQ Index Pollutant
Not available.

Snow Depth

Station Depth Elevation

Earthquake Activity

City Distance Mag. Time & Date
Minimum magnitude displayed is 2.5.

Coastal Water Temperatures

Place Temperature

Stations

Nearby Weather Stations

Station Location Temp. Windchill Dew Point Humidity Wind Precip. Elev Updated Type